createdAt,value
2022-10-05T00:00:30.668Z,10.09
2022-10-05T00:01:30.711Z,10.08
2022-10-05T00:02:30.655Z,10.08
2022-10-05T00:03:30.613Z,10.08
2022-10-05T00:04:30.594Z,10.08
2022-10-05T00:05:30.609Z,10.11
2022-10-05T00:06:30.554Z,10.11
2022-10-05T00:07:30.571Z,10.15
2022-10-05T00:08:30.530Z,10.14
2022-10-05T00:09:30.555Z,10.15
2022-10-05T00:10:30.507Z,10.18
2022-10-05T00:11:30.505Z,10.20
2022-10-05T00:12:30.472Z,10.22
2022-10-05T00:13:30.531Z,10.23
2022-10-05T00:14:30.440Z,10.25
2022-10-05T00:15:30.451Z,10.25
2022-10-05T00:16:30.487Z,10.26
2022-10-05T00:17:30.398Z,10.27
2022-10-05T00:18:30.393Z,10.29
2022-10-05T00:19:30.420Z,10.27
2022-10-05T00:20:30.373Z,10.26
2022-10-05T00:21:30.347Z,10.22
2022-10-05T00:22:30.344Z,10.18
2022-10-05T00:23:30.323Z,10.14
2022-10-05T00:24:30.430Z,10.11
2022-10-05T00:25:30.301Z,10.09
2022-10-05T00:26:30.279Z,10.11
2022-10-05T00:27:30.273Z,10.11
2022-10-05T00:28:30.519Z,10.14
2022-10-05T00:29:30.267Z,10.14
2022-10-05T00:30:30.241Z,10.12
2022-10-05T00:31:30.286Z,10.14
2022-10-05T00:32:30.247Z,10.14
2022-10-05T00:33:30.197Z,10.14
2022-10-05T00:34:30.204Z,10.18
2022-10-05T00:35:30.164Z,10.18
2022-10-05T00:36:30.182Z,10.18
2022-10-05T00:37:30.158Z,10.18
2022-10-05T00:38:30.140Z,10.20
2022-10-05T00:39:30.142Z,10.22
2022-10-05T00:40:30.110Z,10.22
2022-10-05T00:41:30.089Z,10.22
2022-10-05T00:42:30.163Z,10.25
2022-10-05T00:43:30.065Z,10.23
2022-10-05T00:44:30.030Z,10.25
2022-10-05T00:45:30.065Z,10.25
2022-10-05T00:46:30.033Z,10.23
2022-10-05T00:47:30.040Z,10.25
2022-10-05T00:48:29.987Z,10.23
2022-10-05T00:49:29.983Z,10.25
2022-10-05T00:50:29.962Z,10.25
2022-10-05T00:51:29.957Z,10.23
2022-10-05T00:52:29.959Z,10.20
2022-10-05T00:53:29.939Z,10.18
2022-10-05T00:54:29.914Z,10.18
2022-10-05T00:55:29.935Z,10.20
2022-10-05T00:56:29.904Z,10.22
2022-10-05T00:57:29.904Z,10.22
2022-10-05T00:58:29.869Z,10.25
2022-10-05T00:59:29.845Z,10.25
2022-10-05T01:00:29.857Z,10.25
2022-10-05T01:01:29.884Z,10.26
2022-10-05T01:02:34.417Z,10.25
2022-10-05T01:03:29.804Z,10.23
2022-10-05T01:04:29.780Z,10.22
2022-10-05T01:05:29.778Z,10.17
2022-10-05T01:06:29.756Z,10.15
2022-10-05T01:07:29.784Z,10.09
2022-10-05T01:08:29.722Z,10.05
2022-10-05T01:09:29.725Z,10.01
2022-10-05T01:10:29.708Z,10.01
2022-10-05T01:11:29.722Z,10.02
2022-10-05T01:12:29.691Z,10.04
2022-10-05T01:13:29.684Z,10.05
2022-10-05T01:14:29.644Z,10.07
2022-10-05T01:15:29.638Z,10.07
2022-10-05T01:16:29.699Z,10.09
2022-10-05T01:17:29.629Z,10.09
2022-10-05T01:18:29.590Z,10.12
2022-10-05T01:19:29.591Z,10.12
2022-10-05T01:20:29.585Z,10.14
2022-10-05T01:21:29.548Z,10.12
2022-10-05T01:22:29.539Z,10.11
2022-10-05T01:23:29.527Z,10.09
2022-10-05T01:24:29.541Z,10.05
2022-10-05T01:25:29.505Z,10.04
2022-10-05T01:26:29.474Z,10.04
2022-10-05T01:27:29.477Z,10.04
2022-10-05T01:28:29.541Z,10.04
2022-10-05T01:29:29.448Z,10.07
2022-10-05T01:30:29.456Z,10.08
2022-10-05T01:31:29.468Z,10.09
2022-10-05T01:32:29.415Z,10.09
2022-10-05T01:33:29.425Z,10.11
2022-10-05T01:34:29.379Z,10.14
2022-10-05T01:35:29.368Z,10.15
2022-10-05T01:36:29.351Z,10.18
2022-10-05T01:37:29.337Z,10.18
2022-10-05T01:38:29.351Z,10.20
2022-10-05T01:39:29.314Z,10.22
2022-10-05T01:40:29.331Z,10.23
2022-10-05T01:41:29.305Z,10.23
2022-10-05T01:42:29.278Z,10.23
2022-10-05T01:43:29.368Z,10.23
2022-10-05T01:44:29.242Z,10.25
2022-10-05T01:45:29.274Z,10.25
2022-10-05T01:46:29.226Z,10.26
2022-10-05T01:47:29.219Z,10.25
2022-10-05T01:48:29.194Z,10.26
2022-10-05T01:49:29.190Z,10.26
2022-10-05T01:50:29.166Z,10.25
2022-10-05T01:51:29.168Z,10.25
2022-10-05T01:52:29.140Z,10.26
2022-10-05T01:53:29.141Z,10.26
2022-10-05T01:54:29.133Z,10.26
2022-10-05T01:55:29.126Z,10.27
2022-10-05T01:56:29.087Z,10.29
2022-10-05T01:57:29.072Z,10.30
2022-10-05T01:58:29.078Z,10.30
2022-10-05T01:59:29.062Z,10.29
2022-10-05T02:00:29.040Z,10.27
2022-10-05T02:01:29.070Z,10.26
2022-10-05T02:02:29.137Z,10.23
2022-10-05T02:03:28.983Z,10.17
2022-10-05T02:04:56.933Z,10.14
2022-10-05T02:05:28.973Z,10.11
2022-10-05T02:06:28.975Z,10.09
2022-10-05T02:07:28.981Z,10.08
2022-10-05T02:08:28.927Z,10.09
2022-10-05T02:09:28.924Z,10.07
2022-10-05T02:10:28.917Z,10.09
2022-10-05T02:11:28.917Z,10.11
2022-10-05T02:12:28.864Z,10.14
2022-10-05T02:13:28.858Z,10.14
2022-10-05T02:14:28.852Z,10.14
2022-10-05T02:15:28.840Z,10.15
2022-10-05T02:16:28.855Z,10.14
2022-10-05T02:17:28.823Z,10.14
2022-10-05T02:18:28.839Z,10.12
2022-10-05T02:19:28.772Z,10.11
2022-10-05T02:20:28.773Z,10.09
2022-10-05T02:21:28.758Z,10.07
2022-10-05T02:22:28.773Z,10.07
2022-10-05T02:23:28.732Z,10.07
2022-10-05T02:24:28.743Z,10.08
2022-10-05T02:25:28.726Z,10.09
2022-10-05T02:26:28.684Z,10.09
2022-10-05T02:27:28.672Z,10.08
2022-10-05T02:28:28.785Z,10.07
2022-10-05T02:29:28.641Z,10.09
2022-10-05T02:30:28.661Z,10.05
2022-10-05T02:31:28.687Z,10.07
2022-10-05T02:32:28.613Z,10.08
2022-10-05T02:33:28.606Z,10.09
2022-10-05T02:34:28.571Z,10.11
2022-10-05T02:35:28.577Z,10.09
2022-10-05T02:36:28.592Z,10.07
2022-10-05T02:37:28.543Z,10.04
2022-10-05T02:38:28.533Z,10.05
2022-10-05T02:39:28.517Z,10.09
2022-10-05T02:40:28.485Z,10.11
2022-10-05T02:41:28.513Z,10.09
2022-10-05T02:42:28.457Z,10.08
2022-10-05T02:43:28.469Z,10.05
2022-10-05T02:44:28.451Z,10.04
2022-10-05T02:45:28.426Z,10.02
2022-10-05T02:46:28.435Z,10.04
2022-10-05T02:47:28.406Z,10.04
2022-10-05T02:48:28.405Z,10.02
2022-10-05T02:49:28.398Z,10.01
2022-10-05T02:50:28.359Z,9.99
2022-10-05T02:51:28.367Z,9.97
2022-10-05T02:52:28.433Z,9.97
2022-10-05T02:53:28.324Z,9.94
2022-10-05T02:54:28.341Z,9.90
2022-10-05T02:55:28.305Z,9.91
2022-10-05T02:56:28.293Z,9.90
2022-10-05T02:57:28.278Z,9.91
2022-10-05T02:58:28.257Z,9.93
2022-10-05T02:59:28.246Z,9.94
2022-10-05T03:00:28.251Z,9.93
2022-10-05T03:01:28.260Z,9.94
2022-10-05T03:02:28.296Z,9.93
2022-10-05T03:03:28.200Z,9.93
2022-10-05T03:04:28.187Z,9.91
2022-10-05T03:05:28.191Z,9.91
2022-10-05T03:06:28.130Z,9.91
2022-10-05T03:07:28.130Z,9.91
2022-10-05T03:08:28.140Z,9.91
2022-10-05T03:09:28.108Z,9.90
2022-10-05T03:10:28.094Z,9.87
2022-10-05T03:11:28.110Z,9.83
2022-10-05T03:12:28.090Z,9.81
2022-10-05T03:13:28.065Z,9.81
2022-10-05T03:14:28.048Z,9.81
2022-10-05T03:15:28.025Z,9.79
2022-10-05T03:16:28.126Z,9.78
2022-10-05T03:17:28.009Z,9.78
2022-10-05T03:18:30.768Z,9.76
2022-10-05T03:19:27.982Z,9.76
2022-10-05T03:20:27.989Z,9.78
2022-10-05T03:21:27.958Z,9.76
2022-10-05T03:22:27.947Z,9.75
2022-10-05T03:23:27.936Z,9.75
2022-10-05T03:24:27.939Z,9.76
2022-10-05T03:25:27.888Z,9.76
2022-10-05T03:26:27.929Z,9.72
2022-10-05T03:27:27.887Z,9.72
2022-10-05T03:28:27.934Z,9.71
2022-10-05T03:29:27.993Z,9.68
2022-10-05T03:30:27.896Z,9.68
2022-10-05T03:31:27.904Z,9.68
2022-10-05T03:32:27.800Z,9.71
2022-10-05T03:33:27.823Z,9.69
2022-10-05T03:34:27.771Z,9.71
2022-10-05T03:35:27.774Z,9.71
2022-10-05T03:36:27.763Z,9.75
2022-10-05T03:37:27.739Z,9.76
2022-10-05T03:38:27.766Z,9.79
2022-10-05T03:39:27.730Z,9.81
2022-10-05T03:40:27.688Z,9.81
2022-10-05T03:41:27.705Z,9.81
2022-10-05T03:42:27.674Z,9.83
2022-10-05T03:43:27.690Z,9.84
2022-10-05T03:44:27.743Z,9.84
2022-10-05T03:45:27.631Z,9.86
2022-10-05T03:46:27.719Z,9.86
2022-10-05T03:47:27.607Z,9.84
2022-10-05T03:48:27.602Z,9.86
2022-10-05T03:49:27.599Z,9.86
2022-10-05T03:50:27.562Z,9.86
2022-10-05T03:51:27.592Z,9.86
2022-10-05T03:52:27.556Z,9.81
2022-10-05T03:53:27.514Z,9.81
2022-10-05T03:54:27.529Z,9.79
2022-10-05T03:55:27.508Z,9.83
2022-10-05T03:56:27.474Z,9.83
2022-10-05T03:57:27.471Z,9.84
2022-10-05T03:58:27.491Z,9.86
2022-10-05T03:59:32.216Z,9.87
2022-10-05T04:00:27.471Z,9.89
2022-10-05T04:01:27.521Z,9.91
2022-10-05T04:02:27.494Z,9.94
2022-10-05T04:03:27.394Z,9.96
2022-10-05T04:04:27.393Z,9.97
2022-10-05T04:05:27.380Z,10.01
2022-10-05T04:06:27.384Z,10.01
2022-10-05T04:07:27.346Z,10.01
2022-10-05T04:08:27.324Z,9.99
2022-10-05T04:09:27.307Z,9.99
2022-10-05T04:10:27.308Z,10.01
2022-10-05T04:11:27.326Z,10.04
2022-10-05T04:12:27.274Z,10.05
2022-10-05T04:13:27.264Z,10.05
2022-10-05T04:14:27.243Z,10.07
2022-10-05T04:15:27.231Z,10.05
2022-10-05T04:16:27.269Z,10.04
2022-10-05T04:17:27.206Z,10.04
2022-10-05T04:18:27.237Z,10.01
2022-10-05T04:19:27.173Z,9.99
2022-10-05T04:20:27.168Z,9.96
2022-10-05T04:21:27.158Z,9.94
2022-10-05T04:22:27.148Z,9.94
2022-10-05T04:23:27.127Z,9.91
2022-10-05T04:24:27.129Z,9.91
2022-10-05T04:25:27.101Z,9.90
2022-10-05T04:26:27.089Z,9.89
2022-10-05T04:27:27.090Z,9.89
2022-10-05T04:28:31.166Z,9.89
2022-10-05T04:29:27.042Z,9.90
2022-10-05T04:30:27.034Z,9.87
2022-10-05T04:31:27.122Z,9.89
2022-10-05T04:32:27.041Z,9.89
2022-10-05T04:33:27.018Z,9.90
2022-10-05T04:34:26.990Z,9.90
2022-10-05T04:35:26.987Z,9.91
2022-10-05T04:36:26.954Z,9.91
2022-10-05T04:37:26.937Z,9.90
2022-10-05T04:38:26.970Z,9.89
2022-10-05T04:39:26.925Z,9.90
2022-10-05T04:40:26.926Z,9.91
2022-10-05T04:41:26.889Z,9.94
2022-10-05T04:42:26.885Z,9.94
2022-10-05T04:43:26.955Z,9.97
2022-10-05T04:44:26.868Z,9.99
2022-10-05T04:45:26.844Z,9.99
2022-10-05T04:46:26.875Z,10.02
2022-10-05T04:47:26.856Z,10.04
2022-10-05T04:48:26.805Z,10.04
2022-10-05T04:49:26.784Z,10.04
2022-10-05T04:50:26.799Z,10.05
2022-10-05T04:51:26.759Z,10.05
2022-10-05T04:52:26.749Z,10.05
2022-10-05T04:53:26.720Z,10.07
2022-10-05T04:54:26.721Z,10.07
2022-10-05T04:55:26.714Z,10.02
2022-10-05T04:56:26.683Z,9.96
2022-10-05T04:57:26.666Z,9.91
2022-10-05T04:58:26.673Z,9.87
2022-10-05T04:59:26.671Z,9.87
2022-10-05T05:00:26.646Z,9.86
2022-10-05T05:01:26.660Z,9.87
2022-10-05T05:02:26.612Z,9.89
2022-10-05T05:03:26.649Z,9.90
2022-10-05T05:04:26.602Z,9.90
2022-10-05T05:05:26.572Z,9.89
2022-10-05T05:06:26.561Z,9.89
2022-10-05T05:07:26.573Z,9.89
2022-10-05T05:08:26.529Z,9.89
2022-10-05T05:09:26.526Z,9.87
2022-10-05T05:10:26.532Z,9.86
2022-10-05T05:11:26.500Z,9.84
2022-10-05T05:12:26.494Z,9.84
2022-10-05T05:13:26.456Z,9.83
2022-10-05T05:14:26.472Z,9.83
2022-10-05T05:15:26.446Z,9.83
2022-10-05T05:16:26.462Z,9.81
2022-10-05T05:17:26.436Z,9.79
2022-10-05T05:18:26.419Z,9.78
2022-10-05T05:19:26.418Z,9.75
2022-10-05T05:20:26.357Z,9.74
2022-10-05T05:21:26.354Z,9.74
2022-10-05T05:22:26.368Z,9.74
2022-10-05T05:23:26.357Z,9.75
2022-10-05T05:24:26.331Z,9.75
2022-10-05T05:25:26.292Z,9.72
2022-10-05T05:26:26.291Z,9.72
2022-10-05T05:27:26.289Z,9.71
2022-10-05T05:28:26.285Z,9.72
2022-10-05T05:29:26.234Z,9.74
2022-10-05T05:30:26.296Z,9.74
2022-10-05T05:31:26.277Z,9.72
2022-10-05T05:32:26.209Z,9.72
2022-10-05T05:33:26.222Z,9.66
2022-10-05T05:34:26.203Z,9.61
2022-10-05T05:35:26.195Z,9.61
2022-10-05T05:36:26.161Z,9.60
2022-10-05T05:37:26.372Z,9.60
2022-10-05T05:38:26.134Z,9.57
2022-10-05T05:39:26.112Z,9.57
2022-10-05T05:40:26.131Z,9.57
2022-10-05T05:41:26.109Z,9.58
2022-10-05T05:42:26.073Z,9.60
2022-10-05T05:43:26.066Z,9.64
2022-10-05T05:44:26.074Z,9.65
2022-10-05T05:45:26.085Z,9.66
2022-10-05T05:46:44.718Z,9.66
2022-10-05T05:47:26.051Z,9.66
2022-10-05T05:48:25.983Z,9.65
2022-10-05T05:49:25.981Z,9.68
2022-10-05T05:50:25.996Z,9.64
2022-10-05T05:51:25.953Z,9.65
2022-10-05T05:52:25.944Z,9.65
2022-10-05T05:53:25.915Z,9.65
2022-10-05T05:54:25.902Z,9.65
2022-10-05T05:55:29.968Z,9.66
2022-10-05T05:56:25.893Z,9.64
2022-10-05T05:57:25.880Z,9.64
2022-10-05T05:58:26.074Z,9.64
2022-10-05T05:59:25.840Z,9.61
2022-10-05T06:00:25.851Z,9.61
2022-10-05T06:01:33.261Z,9.60
2022-10-05T06:02:25.953Z,9.61
2022-10-05T06:03:25.983Z,9.65
2022-10-05T06:04:25.782Z,9.66
2022-10-05T06:05:25.801Z,9.69
2022-10-05T06:06:25.797Z,9.71
2022-10-05T06:07:30.366Z,9.72
2022-10-05T06:08:25.728Z,9.72
2022-10-05T06:09:25.703Z,9.74
2022-10-05T06:10:25.767Z,9.75
2022-10-05T06:11:25.726Z,9.76
2022-10-05T06:12:25.700Z,9.76
2022-10-05T06:13:25.672Z,9.78
2022-10-05T06:14:25.647Z,9.78
2022-10-05T06:15:25.657Z,9.81
2022-10-05T06:16:25.719Z,9.84
2022-10-05T06:17:25.642Z,9.84
2022-10-05T06:18:25.596Z,9.84
2022-10-05T06:19:25.584Z,9.83
2022-10-05T06:20:25.574Z,9.83
2022-10-05T06:21:25.550Z,9.83
2022-10-05T06:22:25.574Z,9.79
2022-10-05T06:23:25.521Z,9.83
2022-10-05T06:24:25.555Z,9.84
2022-10-05T06:25:25.545Z,9.89
2022-10-05T06:26:25.500Z,9.91
2022-10-05T06:27:26.136Z,9.93
2022-10-05T06:28:25.560Z,9.94
2022-10-05T06:29:25.478Z,9.96
2022-10-05T06:30:25.451Z,9.96
2022-10-05T06:31:25.461Z,9.96
2022-10-05T06:32:25.440Z,9.99
2022-10-05T06:33:25.392Z,10.01
2022-10-05T06:34:25.372Z,10.01
2022-10-05T06:35:25.357Z,10.02
2022-10-05T06:36:25.436Z,10.04
2022-10-05T06:37:25.350Z,10.04
2022-10-05T06:38:25.350Z,10.04
2022-10-05T06:39:25.351Z,10.02
2022-10-05T06:40:25.326Z,10.04
2022-10-05T06:41:25.292Z,10.05
2022-10-05T06:42:25.290Z,10.04
2022-10-05T06:43:25.283Z,10.02
2022-10-05T06:44:25.275Z,10.05
2022-10-05T06:45:25.249Z,10.07
2022-10-05T06:46:25.240Z,10.09
2022-10-05T06:47:25.237Z,10.12
2022-10-05T06:48:25.195Z,10.15
2022-10-05T06:49:25.185Z,10.18
2022-10-05T06:50:25.151Z,10.20
2022-10-05T06:51:25.140Z,10.22
2022-10-05T06:52:25.197Z,10.22
2022-10-05T06:53:25.150Z,10.23
2022-10-05T06:54:25.141Z,10.25
2022-10-05T06:55:25.117Z,10.25
2022-10-05T06:56:25.088Z,10.23
2022-10-05T06:57:25.089Z,10.25
2022-10-05T06:58:25.056Z,10.25
2022-10-05T06:59:25.071Z,10.27
2022-10-05T07:00:25.128Z,10.27
2022-10-05T07:01:25.210Z,10.30
2022-10-05T07:02:25.063Z,10.33
2022-10-05T07:03:25.177Z,10.38
2022-10-05T07:04:25.004Z,10.38
2022-10-05T07:05:24.980Z,10.38
2022-10-05T07:06:24.982Z,10.40
2022-10-05T07:07:24.957Z,10.38
2022-10-05T07:08:24.925Z,10.41
2022-10-05T07:09:24.963Z,10.42
2022-10-05T07:10:24.988Z,10.44
2022-10-05T07:11:25.099Z,10.44
2022-10-05T07:12:24.927Z,10.45
2022-10-05T07:13:24.856Z,10.47
2022-10-05T07:14:24.844Z,10.47
2022-10-05T07:15:24.831Z,10.47
2022-10-05T07:16:24.859Z,10.51
2022-10-05T07:17:24.799Z,10.55
2022-10-05T07:18:24.798Z,10.59
2022-10-05T07:19:24.794Z,10.63
2022-10-05T07:20:24.841Z,10.64
2022-10-05T07:21:24.761Z,10.66
2022-10-05T07:22:24.743Z,10.68
2022-10-05T07:23:24.797Z,10.68
2022-10-05T07:24:24.707Z,10.71
2022-10-05T07:25:24.724Z,10.73
2022-10-05T07:26:24.788Z,10.73
2022-10-05T07:27:24.666Z,10.73
2022-10-05T07:28:24.678Z,10.73
2022-10-05T07:29:24.771Z,10.76
2022-10-05T07:30:24.752Z,10.78
2022-10-05T07:31:24.712Z,10.79
2022-10-05T07:32:24.609Z,10.74
2022-10-05T07:33:24.613Z,10.76
2022-10-05T07:34:24.581Z,10.78
2022-10-05T07:35:24.544Z,10.78
2022-10-05T07:36:24.581Z,10.82
2022-10-05T07:37:24.547Z,10.81
2022-10-05T07:38:24.551Z,10.82
2022-10-05T07:39:36.726Z,10.81
2022-10-05T07:40:24.541Z,10.79
2022-10-05T07:41:24.505Z,10.76
2022-10-05T07:42:24.528Z,10.79
2022-10-05T07:43:24.467Z,10.84
2022-10-05T07:44:24.472Z,10.85
2022-10-05T07:45:24.445Z,10.89
2022-10-05T07:46:24.463Z,10.91
2022-10-05T07:47:24.438Z,10.94
2022-10-05T07:48:24.416Z,10.96
2022-10-05T07:49:24.425Z,11.00
2022-10-05T07:50:24.371Z,11.03
2022-10-05T07:51:24.381Z,11.06
2022-10-05T07:52:24.355Z,11.07
2022-10-05T07:53:24.352Z,11.09
2022-10-05T07:54:24.317Z,11.14
2022-10-05T07:55:24.300Z,11.19
2022-10-05T07:56:24.852Z,11.24
2022-10-05T07:57:24.273Z,11.25
2022-10-05T07:58:24.282Z,11.27
2022-10-05T07:59:24.236Z,11.32
2022-10-05T08:00:24.241Z,11.37
2022-10-05T08:01:24.260Z,11.42
2022-10-05T08:02:24.304Z,11.47
2022-10-05T08:03:24.247Z,11.51
2022-10-05T08:04:24.194Z,11.55
2022-10-05T08:05:24.193Z,11.58
2022-10-05T08:06:24.172Z,11.60
2022-10-05T08:08:24.146Z,11.65
2022-10-05T08:09:24.094Z,11.67
2022-10-05T08:10:24.089Z,11.70
2022-10-05T08:11:24.075Z,11.75
2022-10-05T08:12:24.067Z,11.78
2022-10-05T08:13:24.065Z,11.80
2022-10-05T08:14:24.056Z,11.79
2022-10-05T08:15:24.073Z,11.79
2022-10-05T08:16:24.163Z,11.80
2022-10-05T08:17:25.594Z,11.75
2022-10-05T08:18:24.006Z,11.78
2022-10-05T08:19:23.971Z,11.80
2022-10-05T08:20:23.949Z,11.83
2022-10-05T08:21:23.933Z,11.85
2022-10-05T08:22:24.103Z,11.88
2022-10-05T08:23:23.987Z,11.91
2022-10-05T08:24:23.917Z,11.94
2022-10-05T08:25:23.880Z,11.96
2022-10-05T08:26:23.895Z,12.01
2022-10-05T08:27:23.887Z,12.01
2022-10-05T08:28:23.921Z,12.04
2022-10-05T08:29:23.845Z,12.05
2022-10-05T08:30:23.824Z,12.09
2022-10-05T08:31:23.910Z,12.13
2022-10-05T08:32:23.861Z,12.17
2022-10-05T08:33:23.800Z,12.20
2022-10-05T08:34:24.103Z,12.20
2022-10-05T08:35:23.772Z,12.23
2022-10-05T08:36:23.743Z,12.23
2022-10-05T08:37:23.724Z,12.27
2022-10-05T08:38:23.705Z,12.29
2022-10-05T08:39:23.731Z,12.35
2022-10-05T08:40:23.803Z,12.45
2022-10-05T08:41:23.701Z,12.49
2022-10-05T08:42:23.660Z,12.50
2022-10-05T08:43:23.638Z,12.52
2022-10-05T08:44:23.648Z,12.54
2022-10-05T08:45:23.772Z,12.59
2022-10-05T08:46:23.658Z,12.64
2022-10-05T08:47:23.607Z,12.71
2022-10-05T08:48:23.577Z,12.72
2022-10-05T08:49:23.586Z,12.79
2022-10-05T08:50:23.577Z,12.86
2022-10-05T08:51:23.524Z,12.92
2022-10-05T08:52:23.543Z,12.95
2022-10-05T08:53:23.721Z,12.90
2022-10-05T08:54:23.505Z,12.86
2022-10-05T08:55:23.479Z,12.77
2022-10-05T08:56:28.474Z,12.83
2022-10-05T08:57:23.485Z,12.85
2022-10-05T08:58:23.532Z,13.03
2022-10-05T08:59:23.424Z,13.22
2022-10-05T09:00:23.423Z,13.38
2022-10-05T09:01:23.412Z,13.59
2022-10-05T09:02:23.458Z,13.78
2022-10-05T09:03:23.396Z,13.92
2022-10-05T09:04:23.402Z,14.04
2022-10-05T09:05:23.378Z,14.21
2022-10-05T09:06:23.392Z,14.40
2022-10-05T09:07:23.390Z,14.61
2022-10-05T09:08:23.333Z,14.80
2022-10-05T09:09:23.332Z,14.75
2022-10-05T09:10:23.294Z,14.69
2022-10-05T09:11:23.277Z,14.55
2022-10-05T09:12:23.300Z,14.47
2022-10-05T09:13:23.296Z,14.50
2022-10-05T09:14:23.256Z,14.43
2022-10-05T09:15:27.118Z,14.42
2022-10-05T09:16:23.831Z,14.50
2022-10-05T09:17:23.203Z,14.62
2022-10-05T09:18:23.168Z,14.81
2022-10-05T09:19:23.173Z,14.88
2022-10-05T09:20:23.175Z,14.88
2022-10-05T09:21:23.143Z,14.95
2022-10-05T09:22:23.147Z,15.06
2022-10-05T09:23:23.154Z,15.28
2022-10-05T09:24:23.120Z,15.49
2022-10-05T09:25:23.109Z,15.59
2022-10-05T09:26:23.070Z,15.78
2022-10-05T09:27:23.278Z,16.02
2022-10-05T09:28:23.152Z,16.33
2022-10-05T09:29:23.048Z,16.45
2022-10-05T09:30:23.022Z,16.61
2022-10-05T09:31:23.091Z,16.76
2022-10-05T09:32:23.016Z,16.97
2022-10-05T09:33:22.996Z,17.14
2022-10-05T09:34:23.175Z,17.22
2022-10-05T09:35:22.951Z,17.19
2022-10-05T09:36:22.963Z,17.11
2022-10-05T09:37:22.924Z,17.14
2022-10-05T09:38:22.926Z,17.21
2022-10-05T09:39:22.888Z,17.28
2022-10-05T09:40:22.885Z,17.41
2022-10-05T09:41:22.882Z,17.40
2022-10-05T09:42:22.888Z,17.31
2022-10-05T09:43:22.893Z,17.43
2022-10-05T09:44:22.834Z,17.58
2022-10-05T09:45:22.831Z,17.77
2022-10-05T09:46:22.874Z,17.79
2022-10-05T09:47:22.806Z,17.82
2022-10-05T09:48:22.796Z,17.63
2022-10-05T09:49:22.755Z,17.44
2022-10-05T09:50:22.761Z,17.30
2022-10-05T09:51:22.738Z,17.31
2022-10-05T09:52:22.768Z,17.46
2022-10-05T09:53:22.734Z,17.59
2022-10-05T09:54:22.712Z,17.66
2022-10-05T09:55:22.679Z,17.86
2022-10-05T09:56:22.702Z,18.10
2022-10-05T09:57:22.681Z,18.35
2022-10-05T09:58:22.678Z,18.48
2022-10-05T09:59:22.645Z,18.67
2022-10-05T10:00:22.615Z,18.91
2022-10-05T10:01:33.327Z,19.00
2022-10-05T10:02:22.672Z,19.06
2022-10-05T10:03:22.689Z,19.07
2022-10-05T10:04:22.597Z,19.02
2022-10-05T10:05:22.563Z,19.13
2022-10-05T10:06:22.554Z,19.16
2022-10-05T10:07:22.533Z,19.14
2022-10-05T10:08:22.516Z,19.08
2022-10-05T10:09:22.549Z,19.08
2022-10-05T10:10:22.497Z,18.91
2022-10-05T10:11:22.489Z,18.82
2022-10-05T10:12:22.522Z,18.67
2022-10-05T10:13:22.464Z,18.51
2022-10-05T10:14:22.699Z,18.44
2022-10-05T10:15:22.430Z,18.21
2022-10-05T10:16:22.498Z,17.95
2022-10-05T10:17:22.424Z,17.82
2022-10-05T10:18:22.381Z,17.78
2022-10-05T10:19:22.377Z,17.75
2022-10-05T10:20:22.379Z,17.72
2022-10-05T10:21:22.368Z,17.77
2022-10-05T10:22:22.332Z,17.82
2022-10-05T10:23:22.360Z,17.90
2022-10-05T10:24:22.325Z,17.90
2022-10-05T10:25:22.302Z,17.95
2022-10-05T10:26:22.283Z,18.00
2022-10-05T10:27:22.303Z,18.08
2022-10-05T10:28:22.328Z,18.08
2022-10-05T10:29:22.267Z,18.10
2022-10-05T10:30:24.060Z,18.08
2022-10-05T10:31:22.357Z,18.10
2022-10-05T10:32:22.234Z,18.12
2022-10-05T10:33:22.202Z,18.20
2022-10-05T10:34:22.173Z,18.26
2022-10-05T10:35:22.215Z,18.35
2022-10-05T10:36:22.177Z,18.45
2022-10-05T10:37:22.149Z,18.50
2022-10-05T10:38:22.139Z,18.52
2022-10-05T10:39:22.208Z,18.55
2022-10-05T10:40:22.125Z,18.55
2022-10-05T10:41:22.084Z,18.52
2022-10-05T10:42:26.069Z,18.52
2022-10-05T10:43:22.049Z,18.57
2022-10-05T10:44:22.163Z,18.58
2022-10-05T10:45:22.027Z,18.58
2022-10-05T10:46:22.103Z,18.62
2022-10-05T10:47:22.003Z,18.54
2022-10-05T10:48:21.999Z,18.50
2022-10-05T10:49:22.001Z,18.48
2022-10-05T10:50:21.986Z,18.50
2022-10-05T10:51:21.937Z,18.52
2022-10-05T10:52:21.944Z,18.57
2022-10-05T10:53:21.921Z,18.62
2022-10-05T10:54:21.967Z,18.63
2022-10-05T10:55:21.941Z,18.65
2022-10-05T10:56:21.885Z,18.63
2022-10-05T10:57:21.893Z,18.66
2022-10-05T10:58:21.923Z,18.69
2022-10-05T10:59:21.890Z,18.73
2022-10-05T11:00:21.837Z,18.72
2022-10-05T11:01:21.895Z,18.75
2022-10-05T11:02:21.924Z,18.78
2022-10-05T11:03:21.776Z,18.81
2022-10-05T11:04:21.802Z,18.85
2022-10-05T11:05:21.856Z,18.91
2022-10-05T11:06:21.757Z,18.98
2022-10-05T11:07:21.789Z,18.98
2022-10-05T11:08:21.749Z,19.00
2022-10-05T11:09:21.712Z,18.99
2022-10-05T11:10:21.712Z,19.00
2022-10-05T11:11:21.714Z,19.04
2022-10-05T11:12:21.673Z,19.07
2022-10-05T11:13:21.656Z,19.10
2022-10-05T11:14:21.647Z,19.18
2022-10-05T11:15:21.633Z,19.26
2022-10-05T11:16:21.654Z,19.37
2022-10-05T11:17:21.617Z,19.39
2022-10-05T11:18:21.626Z,19.39
2022-10-05T11:19:22.937Z,19.39
2022-10-05T11:20:21.569Z,19.39
2022-10-05T11:21:21.578Z,19.39
2022-10-05T11:22:21.543Z,19.40
2022-10-05T11:23:21.725Z,19.46
2022-10-05T11:24:21.505Z,19.50
2022-10-05T11:25:21.483Z,19.54
2022-10-05T11:26:21.520Z,19.55
2022-10-05T11:28:21.560Z,19.69
2022-10-05T11:29:21.460Z,19.76
2022-10-05T11:30:21.466Z,19.86
2022-10-05T11:31:21.469Z,19.98
2022-10-05T11:32:21.444Z,20.02
2022-10-05T11:33:21.403Z,20.08
2022-10-05T11:34:21.418Z,20.16
2022-10-05T11:35:21.366Z,20.18
2022-10-05T11:36:21.417Z,20.21
2022-10-05T11:37:21.378Z,20.23
2022-10-05T11:38:21.346Z,20.24
2022-10-05T11:39:21.307Z,20.26
2022-10-05T11:40:21.301Z,20.29
2022-10-05T11:41:21.344Z,20.33
2022-10-05T11:42:21.779Z,20.39
2022-10-05T11:43:21.271Z,20.43
2022-10-05T11:44:21.233Z,20.47
2022-10-05T11:45:21.223Z,20.50
2022-10-05T11:46:21.356Z,20.61
2022-10-05T11:47:21.255Z,20.67
2022-10-05T11:48:21.191Z,20.72
2022-10-05T11:49:21.185Z,20.77
2022-10-05T11:50:21.380Z,20.84
2022-10-05T11:51:24.022Z,20.88
2022-10-05T11:52:21.178Z,20.94
2022-10-05T11:53:21.124Z,20.98
2022-10-05T11:54:21.144Z,21.01
2022-10-05T11:55:21.093Z,21.07
2022-10-05T11:56:21.114Z,21.14
2022-10-05T11:57:21.103Z,21.22
2022-10-05T11:58:21.073Z,21.27
2022-10-05T11:59:21.082Z,21.28
2022-10-05T12:00:21.106Z,21.28
2022-10-05T12:01:21.029Z,21.27
2022-10-05T12:02:21.032Z,21.24
2022-10-05T12:03:21.152Z,21.22
2022-10-05T12:04:21.026Z,21.21
2022-10-05T12:05:20.989Z,21.21
2022-10-05T12:06:20.989Z,21.16
2022-10-05T12:07:20.954Z,21.17
2022-10-05T12:08:20.949Z,21.24
2022-10-05T12:09:20.915Z,21.28
2022-10-05T12:10:20.922Z,21.28
2022-10-05T12:11:20.891Z,21.28
2022-10-05T12:12:20.901Z,21.27
2022-10-05T12:13:20.863Z,21.27
2022-10-05T12:14:20.859Z,21.27
2022-10-05T12:15:20.825Z,21.29
2022-10-05T12:16:20.882Z,21.32
2022-10-05T12:17:20.839Z,21.37
2022-10-05T12:18:20.798Z,21.38
2022-10-05T12:19:21.115Z,21.42
2022-10-05T12:20:20.780Z,21.47
2022-10-05T12:21:20.743Z,21.50
2022-10-05T12:22:20.771Z,21.53
2022-10-05T12:23:20.730Z,21.52
2022-10-05T12:24:25.935Z,21.52
2022-10-05T12:25:20.778Z,21.52
2022-10-05T12:26:20.711Z,21.49
2022-10-05T12:27:20.702Z,21.52
2022-10-05T12:28:20.694Z,21.53
2022-10-05T12:29:20.685Z,21.52
2022-10-05T12:30:20.636Z,21.47
2022-10-05T12:31:20.695Z,21.47
2022-10-05T12:32:20.614Z,21.47
2022-10-05T12:33:20.617Z,21.50
2022-10-05T12:34:20.693Z,21.52
2022-10-05T12:35:36.642Z,21.54
2022-10-05T12:36:20.607Z,21.54
2022-10-05T12:37:20.549Z,21.54
2022-10-05T12:38:20.539Z,21.58
2022-10-05T12:39:20.515Z,21.61
2022-10-05T12:40:20.544Z,21.69
2022-10-05T12:41:20.518Z,21.71
2022-10-05T12:42:20.498Z,21.72
2022-10-05T12:43:20.461Z,21.71
2022-10-05T12:44:20.458Z,21.75
2022-10-05T12:45:20.437Z,21.75
2022-10-05T12:46:20.465Z,21.72
2022-10-05T12:47:20.407Z,21.74
2022-10-05T12:48:20.406Z,21.75
2022-10-05T12:49:20.382Z,21.77
2022-10-05T12:50:20.392Z,21.83
2022-10-05T12:51:20.388Z,21.88
2022-10-05T12:52:20.604Z,21.92
2022-10-05T12:53:20.346Z,21.92
2022-10-05T12:54:20.309Z,21.90
2022-10-05T12:55:20.296Z,21.90
2022-10-05T12:56:20.294Z,21.90
2022-10-05T12:57:20.308Z,21.90
2022-10-05T12:58:20.290Z,21.90
2022-10-05T12:59:20.255Z,21.90
2022-10-05T13:00:22.870Z,21.88
2022-10-05T13:01:20.230Z,21.90